sensor_id;sensor_type;location;lat;lon;timestamp;pressure;altitude;pressure_sealevel;temperature;humidity
63552;BME280;49698;48.072;7.800;2023-04-10T00:01:56;99911.13;;;7.80;61.78
63552;BME280;49698;48.072;7.800;2023-04-10T00:04:24;99914.88;;;7.79;62.06
63552;BME280;49698;48.072;7.800;2023-04-10T00:06:52;99916.94;;;7.72;62.35
63552;BME280;49698;48.072;7.800;2023-04-10T00:09:22;99909.09;;;7.66;62.63
63552;BME280;49698;48.072;7.800;2023-04-10T00:11:50;99913.59;;;7.60;62.66
63552;BME280;49698;48.072;7.800;2023-04-10T00:14:18;99909.00;;;7.55;62.78
63552;BME280;49698;48.072;7.800;2023-04-10T00:16:49;99906.00;;;7.52;63.26
63552;BME280;49698;48.072;7.800;2023-04-10T00:19:17;99906.19;;;7.45;63.24
63552;BME280;49698;48.072;7.800;2023-04-10T00:21:45;99905.06;;;7.41;63.29
63552;BME280;49698;48.072;7.800;2023-04-10T00:24:13;99898.03;;;7.35;63.77
63552;BME280;49698;48.072;7.800;2023-04-10T00:26:42;99898.25;;;7.28;63.89
63552;BME280;49698;48.072;7.800;2023-04-10T00:29:10;99896.28;;;7.24;64.34
63552;BME280;49698;48.072;7.800;2023-04-10T00:31:38;99892.75;;;7.18;64.66
63552;BME280;49698;48.072;7.800;2023-04-10T00:34:06;99897.25;;;7.13;64.79
63552;BME280;49698;48.072;7.800;2023-04-10T00:36:34;99890.75;;;7.08;64.94
63552;BME280;49698;48.072;7.800;2023-04-10T00:39:02;99891.16;;;7.00;65.62
63552;BME280;49698;48.072;7.800;2023-04-10T00:41:30;99892.97;;;6.95;65.64
63552;BME280;49698;48.072;7.800;2023-04-10T00:43:59;99891.06;;;6.90;66.19
63552;BME280;49698;48.072;7.800;2023-04-10T00:46:28;99898.97;;;6.85;66.25
63552;BME280;49698;48.072;7.800;2023-04-10T00:48:57;99893.81;;;6.78;66.40
63552;BME280;49698;48.072;7.800;2023-04-10T00:51:26;99899.34;;;6.72;66.62
63552;BME280;49698;48.072;7.800;2023-04-10T00:53:54;99890.13;;;6.63;66.65
63552;BME280;49698;48.072;7.800;2023-04-10T00:56:23;99882.03;;;6.57;67.09
63552;BME280;49698;48.072;7.800;2023-04-10T00:58:51;99887.03;;;6.54;67.03
63552;BME280;49698;48.072;7.800;2023-04-10T01:01:21;99884.63;;;6.52;67.33
63552;BME280;49698;48.072;7.800;2023-04-10T01:03:49;99883.50;;;6.48;67.11
63552;BME280;49698;48.072;7.800;2023-04-10T01:06:25;99886.09;;;6.43;67.29
63552;BME280;49698;48.072;7.800;2023-04-10T01:09:02;99888.59;;;6.33;68.04
63552;BME280;49698;48.072;7.800;2023-04-10T01:11:41;99890.59;;;6.26;68.08
63552;BME280;49698;48.072;7.800;2023-04-10T01:14:18;99886.25;;;6.20;68.35
63552;BME280;49698;48.072;7.800;2023-04-10T01:16:54;99888.00;;;6.14;68.51
63552;BME280;49698;48.072;7.800;2023-04-10T01:19:32;99893.03;;;6.10;68.58
63552;BME280;49698;48.072;7.800;2023-04-10T01:22:05;99890.28;;;6.05;69.09
63552;BME280;49698;48.072;7.800;2023-04-10T01:24:47;99899.00;;;6.01;69.53
63552;BME280;49698;48.072;7.800;2023-04-10T01:27:29;99901.22;;;5.92;69.55
63552;BME280;49698;48.072;7.800;2023-04-10T01:30:05;99898.22;;;5.88;69.49
63552;BME280;49698;48.072;7.800;2023-04-10T01:32:34;99897.56;;;5.81;69.59
63552;BME280;49698;48.072;7.800;2023-04-10T01:35:06;99889.06;;;5.84;69.74
63552;BME280;49698;48.072;7.800;2023-04-10T01:37:37;99893.59;;;5.84;69.46
63552;BME280;49698;48.072;7.800;2023-04-10T01:40:10;99891.19;;;5.82;69.72
63552;BME280;49698;48.072;7.800;2023-04-10T01:42:43;99885.25;;;5.80;69.56
63552;BME280;49698;48.072;7.800;2023-04-10T01:45:17;99883.31;;;5.76;70.10
63552;BME280;49698;48.072;7.800;2023-04-10T01:47:49;99884.84;;;5.72;70.53
63552;BME280;49698;48.072;7.800;2023-04-10T01:50:19;99885.97;;;5.76;70.08
63552;BME280;49698;48.072;7.800;2023-04-10T01:52:50;99886.31;;;5.79;69.58
63552;BME280;49698;48.072;7.800;2023-04-10T01:55:22;99880.16;;;5.79;69.62
63552;BME280;49698;48.072;7.800;2023-04-10T01:57:55;99887.91;;;5.80;69.87
63552;BME280;49698;48.072;7.800;2023-04-10T02:00:25;99890.84;;;5.79;69.69
63552;BME280;49698;48.072;7.800;2023-04-10T02:02:53;99895.59;;;5.77;69.61
63552;BME280;49698;48.072;7.800;2023-04-10T02:05:22;99888.09;;;5.74;69.54
63552;BME280;49698;48.072;7.800;2023-04-10T02:08:01;99895.28;;;5.73;69.91
63552;BME280;49698;48.072;7.800;2023-04-10T02:10:38;99893.22;;;5.63;69.71
63552;BME280;49698;48.072;7.800;2023-04-10T02:13:10;99894.28;;;5.62;70.01
63552;BME280;49698;48.072;7.800;2023-04-10T02:15:42;99889.88;;;5.56;70.44
63552;BME280;49698;48.072;7.800;2023-04-10T02:18:14;99891.31;;;5.47;70.55
63552;BME280;49698;48.072;7.800;2023-04-10T02:20:43;99893.72;;;5.49;70.63
63552;BME280;49698;48.072;7.800;2023-04-10T02:23:12;99900.13;;;5.48;70.57
63552;BME280;49698;48.072;7.800;2023-04-10T02:25:42;99892.03;;;5.43;71.22
63552;BME280;49698;48.072;7.800;2023-04-10T02:28:09;99889.59;;;5.41;71.24
63552;BME280;49698;48.072;7.800;2023-04-10T02:30:38;99889.50;;;5.36;71.45
63552;BME280;49698;48.072;7.800;2023-04-10T02:33:07;99893.22;;;5.35;71.48
63552;BME280;49698;48.072;7.800;2023-04-10T02:35:35;99891.00;;;5.32;71.50
63552;BME280;49698;48.072;7.800;2023-04-10T02:38:03;99886.16;;;5.29;71.48
63552;BME280;49698;48.072;7.800;2023-04-10T02:40:35;99896.34;;;5.32;71.90
63552;BME280;49698;48.072;7.800;2023-04-10T02:43:13;99896.34;;;5.32;72.22
63552;BME280;49698;48.072;7.800;2023-04-10T02:45:42;99893.34;;;5.28;72.18
63552;BME280;49698;48.072;7.800;2023-04-10T02:48:14;99902.13;;;5.29;72.01
63552;BME280;49698;48.072;7.800;2023-04-10T02:50:46;99895.75;;;5.30;72.13
63552;BME280;49698;48.072;7.800;2023-04-10T02:53:15;99897.78;;;5.23;72.17
63552;BME280;49698;48.072;7.800;2023-04-10T02:55:43;99894.63;;;5.14;72.63
63552;BME280;49698;48.072;7.800;2023-04-10T02:58:11;99890.47;;;5.06;73.00
63552;BME280;49698;48.072;7.800;2023-04-10T03:00:40;99888.97;;;5.10;72.64
63552;BME280;49698;48.072;7.800;2023-04-10T03:03:34;99880.41;;;5.08;72.64
63552;BME280;49698;48.072;7.800;2023-04-10T03:06:03;99872.28;;;5.03;72.67
63552;BME280;49698;48.072;7.800;2023-04-10T03:08:33;99872.78;;;5.00;72.99
63552;BME280;49698;48.072;7.800;2023-04-10T03:11:01;99875.19;;;5.02;73.00
63552;BME280;49698;48.072;7.800;2023-04-10T03:13:29;99865.69;;;5.06;72.78
63552;BME280;49698;48.072;7.800;2023-04-10T03:15:57;99860.16;;;5.07;72.82
63552;BME280;49698;48.072;7.800;2023-04-10T03:18:26;99860.72;;;5.09;72.50
63552;BME280;49698;48.072;7.800;2023-04-10T03:20:56;99853.75;;;5.08;72.30
63552;BME280;49698;48.072;7.800;2023-04-10T03:23:24;99846.81;;;5.07;72.55
63552;BME280;49698;48.072;7.800;2023-04-10T03:25:53;99850.50;;;5.06;72.66
63552;BME280;49698;48.072;7.800;2023-04-10T03:28:25;99848.22;;;4.98;72.77
63552;BME280;49698;48.072;7.800;2023-04-10T03:30:53;99853.44;;;4.93;73.40
63552;BME280;49698;48.072;7.800;2023-04-10T03:33:22;99843.16;;;4.85;73.62
63552;BME280;49698;48.072;7.800;2023-04-10T03:35:50;99839.69;;;4.73;73.88
63552;BME280;49698;48.072;7.800;2023-04-10T03:38:20;99834.59;;;4.59;74.84
63552;BME280;49698;48.072;7.800;2023-04-10T03:40:49;99841.78;;;4.47;75.35
63552;BME280;49698;48.072;7.800;2023-04-10T03:43:19;99839.13;;;4.35;75.72
63552;BME280;49698;48.072;7.800;2023-04-10T03:45:47;99842.50;;;4.31;75.82
63552;BME280;49698;48.072;7.800;2023-04-10T03:48:15;99835.41;;;4.25;76.09
63552;BME280;49698;48.072;7.800;2023-04-10T03:50:45;99838.06;;;4.25;76.10
63552;BME280;49698;48.072;7.800;2023-04-10T03:53:14;99857.41;;;4.20;76.00
63552;BME280;49698;48.072;7.800;2023-04-10T03:55:45;99843.63;;;4.11;76.07
63552;BME280;49698;48.072;7.800;2023-04-10T03:58:13;99840.97;;;4.11;76.42
63552;BME280;49698;48.072;7.800;2023-04-10T04:00:41;99842.69;;;4.17;76.03
63552;BME280;49698;48.072;7.800;2023-04-10T04:03:21;99842.84;;;4.23;75.80
63552;BME280;49698;48.072;7.800;2023-04-10T04:06:00;99845.72;;;4.21;76.12
63552;BME280;49698;48.072;7.800;2023-04-10T04:08:52;99840.53;;;4.26;75.84
63552;BME280;49698;48.072;7.800;2023-04-10T04:11:44;99842.50;;;4.31;75.70
63552;BME280;49698;48.072;7.800;2023-04-10T04:14:32;99851.75;;;4.40;74.95
63552;BME280;49698;48.072;7.800;2023-04-10T04:17:24;99850.13;;;4.39;75.06
63552;BME280;49698;48.072;7.800;2023-04-10T04:20:21;99850.94;;;4.39;75.02
63552;BME280;49698;48.072;7.800;2023-04-10T04:23:08;99845.97;;;4.43;74.96
63552;BME280;49698;48.072;7.800;2023-04-10T04:25:54;99852.34;;;4.42;74.75
63552;BME280;49698;48.072;7.800;2023-04-10T04:28:42;99845.84;;;4.26;75.19
63552;BME280;49698;48.072;7.800;2023-04-10T04:31:16;99849.66;;;4.19;75.88
63552;BME280;49698;48.072;7.800;2023-04-10T04:34:12;99846.41;;;4.16;75.94
63552;BME280;49698;48.072;7.800;2023-04-10T04:37:03;99848.72;;;4.13;76.01
63552;BME280;49698;48.072;7.800;2023-04-10T04:39:37;99847.31;;;4.10;76.09
63552;BME280;49698;48.072;7.800;2023-04-10T04:42:23;99847.31;;;4.10;76.04
63552;BME280;49698;48.072;7.800;2023-04-10T04:45:12;99847.53;;;4.09;75.88
63552;BME280;49698;48.072;7.800;2023-04-10T04:48:06;99853.69;;;4.09;76.05
63552;BME280;49698;48.072;7.800;2023-04-10T04:50:54;99861.78;;;4.03;76.01
63552;BME280;49698;48.072;7.800;2023-04-10T04:53:47;99851.69;;;3.93;76.21
63552;BME280;49698;48.072;7.800;2023-04-10T04:56:33;99857.13;;;3.98;76.26
63552;BME280;49698;48.072;7.800;2023-04-10T04:59:19;99856.09;;;3.99;76.10
63552;BME280;49698;48.072;7.800;2023-04-10T05:02:13;99858.53;;;4.01;76.35
63552;BME280;49698;48.072;7.800;2023-04-10T05:04:53;99861.41;;;3.99;76.31
63552;BME280;49698;48.072;7.800;2023-04-10T05:07:38;99850.53;;;4.01;76.47
63552;BME280;49698;48.072;7.800;2023-04-10T05:10:30;99854.72;;;4.08;76.15
63552;BME280;49698;48.072;7.800;2023-04-10T05:13:08;99855.44;;;4.15;75.93
63552;BME280;49698;48.072;7.800;2023-04-10T05:15:45;99867.78;;;4.22;75.73
63552;BME280;49698;48.072;7.800;2023-04-10T05:18:34;99868.75;;;4.27;75.43
63552;BME280;49698;48.072;7.800;2023-04-10T05:21:18;99866.66;;;4.29;75.74
63552;BME280;49698;48.072;7.800;2023-04-10T05:24:20;99871.16;;;4.29;75.71
63552;BME280;49698;48.072;7.800;2023-04-10T05:27:08;99870.81;;;4.37;75.58
63552;BME280;49698;48.072;7.800;2023-04-10T05:29:59;99865.16;;;4.45;75.22
63552;BME280;49698;48.072;7.800;2023-04-10T05:32:36;99867.81;;;4.45;75.12
63552;BME280;49698;48.072;7.800;2023-04-10T05:35:38;99863.31;;;4.46;75.00
63552;BME280;49698;48.072;7.800;2023-04-10T05:38:29;99859.16;;;4.38;75.19
63552;BME280;49698;48.072;7.800;2023-04-10T05:41:20;99856.25;;;4.28;75.50
63552;BME280;49698;48.072;7.800;2023-04-10T05:44:06;99865.63;;;4.19;76.07
63552;BME280;49698;48.072;7.800;2023-04-10T05:46:56;99861.19;;;4.12;76.10
63552;BME280;49698;48.072;7.800;2023-04-10T05:49:35;99866.63;;;4.17;76.37
63552;BME280;49698;48.072;7.800;2023-04-10T05:52:15;99874.44;;;4.31;75.90
63552;BME280;49698;48.072;7.800;2023-04-10T05:55:21;99879.97;;;4.41;75.49
63552;BME280;49698;48.072;7.800;2023-04-10T05:58:12;99883.69;;;4.52;74.82
63552;BME280;49698;48.072;7.800;2023-04-10T06:01:09;99881.72;;;4.59;74.81
63552;BME280;49698;48.072;7.800;2023-04-10T06:03:50;99886.13;;;4.65;74.71
63552;BME280;49698;48.072;7.800;2023-04-10T06:06:20;99883.13;;;4.73;74.68
63552;BME280;49698;48.072;7.800;2023-04-10T06:08:49;99874.44;;;4.78;74.65
63552;BME280;49698;48.072;7.800;2023-04-10T06:11:17;99876.63;;;4.81;74.81
63552;BME280;49698;48.072;7.800;2023-04-10T06:13:50;99871.31;;;4.81;74.52
63552;BME280;49698;48.072;7.800;2023-04-10T06:16:23;99878.34;;;4.87;74.80
63552;BME280;49698;48.072;7.800;2023-04-10T06:18:52;99879.03;;;4.94;74.87
63552;BME280;49698;48.072;7.800;2023-04-10T06:21:20;99878.66;;;5.02;74.56
63552;BME280;49698;48.072;7.800;2023-04-10T06:23:50;99884.13;;;5.07;74.56
63552;BME280;49698;48.072;7.800;2023-04-10T06:26:18;99895.44;;;5.14;74.22
63552;BME280;49698;48.072;7.800;2023-04-10T06:28:46;99894.94;;;5.29;74.04
63552;BME280;49698;48.072;7.800;2023-04-10T06:31:16;99886.03;;;5.35;73.82
63552;BME280;49698;48.072;7.800;2023-04-10T06:33:44;99884.59;;;5.45;73.74
63552;BME280;49698;48.072;7.800;2023-04-10T06:36:12;99896.81;;;5.57;73.62
63552;BME280;49698;48.072;7.800;2023-04-10T06:38:49;99894.38;;;5.68;73.55
63552;BME280;49698;48.072;7.800;2023-04-10T06:41:17;99892.94;;;5.77;73.04
63552;BME280;49698;48.072;7.800;2023-04-10T06:43:45;99894.66;;;5.83;72.72
63552;BME280;49698;48.072;7.800;2023-04-10T06:46:13;99894.25;;;5.91;72.53
63552;BME280;49698;48.072;7.800;2023-04-10T06:48:41;99889.13;;;6.01;72.20
63552;BME280;49698;48.072;7.800;2023-04-10T06:51:10;99881.78;;;6.08;71.75
63552;BME280;49698;48.072;7.800;2023-04-10T06:53:37;99886.94;;;6.15;71.60
63552;BME280;49698;48.072;7.800;2023-04-10T06:56:08;99887.94;;;6.26;71.09
63552;BME280;49698;48.072;7.800;2023-04-10T06:58:36;99890.19;;;6.34;71.37
63552;BME280;49698;48.072;7.800;2023-04-10T07:01:04;99891.91;;;6.40;71.03
63552;BME280;49698;48.072;7.800;2023-04-10T07:03:33;99890.94;;;6.46;70.59
63552;BME280;49698;48.072;7.800;2023-04-10T07:06:00;99885.19;;;6.54;70.66
63552;BME280;49698;48.072;7.800;2023-04-10T07:08:29;99883.72;;;6.64;70.48
63552;BME280;49698;48.072;7.800;2023-04-10T07:10:57;99887.03;;;6.71;70.00
63552;BME280;49698;48.072;7.800;2023-04-10T07:13:26;99888.50;;;6.78;70.07
63552;BME280;49698;48.072;7.800;2023-04-10T07:15:54;99885.06;;;6.83;70.02
63552;BME280;49698;48.072;7.800;2023-04-10T07:18:22;99885.22;;;6.93;69.66
63552;BME280;49698;48.072;7.800;2023-04-10T07:20:50;99878.38;;;7.02;69.36
63552;BME280;49698;48.072;7.800;2023-04-10T07:23:19;99882.22;;;7.11;69.16
63552;BME280;49698;48.072;7.800;2023-04-10T07:25:49;99874.59;;;7.20;68.75
63552;BME280;49698;48.072;7.800;2023-04-10T07:28:22;99878.47;;;7.29;68.62
63552;BME280;49698;48.072;7.800;2023-04-10T07:30:52;99881.53;;;7.43;68.26
63552;BME280;49698;48.072;7.800;2023-04-10T07:33:20;99876.38;;;7.58;67.71
63552;BME280;49698;48.072;7.800;2023-04-10T07:35:48;99879.19;;;7.74;67.79
63552;BME280;49698;48.072;7.800;2023-04-10T07:38:16;99870.28;;;7.90;67.29
63552;BME280;49698;48.072;7.800;2023-04-10T07:40:44;99873.34;;;8.04;66.91
63552;BME280;49698;48.072;7.800;2023-04-10T07:43:12;99875.63;;;8.17;66.09
63552;BME280;49698;48.072;7.800;2023-04-10T07:45:41;99877.59;;;8.32;65.39
63552;BME280;49698;48.072;7.800;2023-04-10T07:48:10;99882.28;;;8.47;65.43
63552;BME280;49698;48.072;7.800;2023-04-10T07:50:38;99877.53;;;8.59;65.15
63552;BME280;49698;48.072;7.800;2023-04-10T07:53:06;99868.25;;;8.72;64.95
63552;BME280;49698;48.072;7.800;2023-04-10T07:55:37;99869.69;;;8.90;64.65
63552;BME280;49698;48.072;7.800;2023-04-10T07:58:05;99872.22;;;9.06;64.04
63552;BME280;49698;48.072;7.800;2023-04-10T08:00:33;99871.19;;;9.23;63.84
63552;BME280;49698;48.072;7.800;2023-04-10T08:03:02;99872.06;;;9.39;63.60
63552;BME280;49698;48.072;7.800;2023-04-10T08:05:32;99860.03;;;9.51;63.17
63552;BME280;49698;48.072;7.800;2023-04-10T08:08:00;99857.41;;;9.72;62.51
63552;BME280;49698;48.072;7.800;2023-04-10T08:10:28;99857.97;;;10.15;61.32
63552;BME280;49698;48.072;7.800;2023-04-10T08:12:56;99854.72;;;10.74;60.60
63552;BME280;49698;48.072;7.800;2023-04-10T08:15:24;99852.09;;;11.29;59.32
63552;BME280;49698;48.072;7.800;2023-04-10T08:17:52;99858.03;;;11.85;56.98
63552;BME280;49698;48.072;7.800;2023-04-10T08:20:21;99856.22;;;12.39;55.88
63552;BME280;49698;48.072;7.800;2023-04-10T08:22:50;99858.69;;;12.93;54.84
63552;BME280;49698;48.072;7.800;2023-04-10T08:25:18;99855.38;;;13.44;53.71
63552;BME280;49698;48.072;7.800;2023-04-10T08:27:46;99857.84;;;13.98;52.46
63552;BME280;49698;48.072;7.800;2023-04-10T08:30:14;99854.41;;;14.43;51.36
63552;BME280;49698;48.072;7.800;2023-04-10T08:32:42;99854.41;;;14.76;49.55
63552;BME280;49698;48.072;7.800;2023-04-10T08:35:10;99854.59;;;14.93;49.05
63552;BME280;49698;48.072;7.800;2023-04-10T08:37:38;99852.72;;;15.22;48.24
63552;BME280;49698;48.072;7.800;2023-04-10T08:40:08;99848.34;;;15.48;47.55
63552;BME280;49698;48.072;7.800;2023-04-10T08:42:36;99840.88;;;15.68;46.89
63552;BME280;49698;48.072;7.800;2023-04-10T08:45:06;99846.16;;;15.86;45.92
63552;BME280;49698;48.072;7.800;2023-04-10T08:47:35;99844.81;;;15.98;45.25
63552;BME280;49698;48.072;7.800;2023-04-10T08:50:06;99842.22;;;15.93;45.32
63552;BME280;49698;48.072;7.800;2023-04-10T08:52:36;99846.91;;;16.01;45.28
63552;BME280;49698;48.072;7.800;2023-04-10T08:55:12;99842.34;;;16.10;45.26
63552;BME280;49698;48.072;7.800;2023-04-10T08:57:40;99850.66;;;16.13;44.88
63552;BME280;49698;48.072;7.800;2023-04-10T09:00:12;99843.13;;;16.33;44.30
63552;BME280;49698;48.072;7.800;2023-04-10T09:02:47;99844.03;;;16.51;44.20
63552;BME280;49698;48.072;7.800;2023-04-10T09:05:21;99838.69;;;16.68;43.83
63552;BME280;49698;48.072;7.800;2023-04-10T09:07:49;99827.66;;;16.64;42.75
63552;BME280;49698;48.072;7.800;2023-04-10T09:10:19;99831.59;;;16.50;43.41
63552;BME280;49698;48.072;7.800;2023-04-10T09:12:47;99826.16;;;16.50;43.89
63552;BME280;49698;48.072;7.800;2023-04-10T09:15:15;99816.94;;;16.59;43.77
63552;BME280;49698;48.072;7.800;2023-04-10T09:17:58;99818.41;;;16.66;43.91
63552;BME280;49698;48.072;7.800;2023-04-10T09:20:28;99807.63;;;16.74;43.40
63552;BME280;49698;48.072;7.800;2023-04-10T09:22:57;99804.50;;;16.67;44.31
63552;BME280;49698;48.072;7.800;2023-04-10T09:25:32;99802.91;;;16.57;44.25
63552;BME280;49698;48.072;7.800;2023-04-10T09:28:04;99796.06;;;16.37;44.21
63552;BME280;49698;48.072;7.800;2023-04-10T09:30:34;99800.63;;;16.20;44.14
63552;BME280;49698;48.072;7.800;2023-04-10T09:33:11;99788.59;;;16.12;44.65
63552;BME280;49698;48.072;7.800;2023-04-10T09:35:47;99796.38;;;15.82;44.02
63552;BME280;49698;48.072;7.800;2023-04-10T09:38:16;99793.09;;;15.72;44.89
63552;BME280;49698;48.072;7.800;2023-04-10T09:40:47;99788.78;;;15.71;45.17
63552;BME280;49698;48.072;7.800;2023-04-10T09:43:23;99795.38;;;15.78;44.81
63552;BME280;49698;48.072;7.800;2023-04-10T09:45:53;99792.88;;;15.82;44.47
63552;BME280;49698;48.072;7.800;2023-04-10T09:48:23;99792.72;;;15.87;44.89
63552;BME280;49698;48.072;7.800;2023-04-10T09:50:52;99779.19;;;15.87;44.68
63552;BME280;49698;48.072;7.800;2023-04-10T09:53:20;99778.00;;;15.79;44.62
63552;BME280;49698;48.072;7.800;2023-04-10T09:55:49;99766.44;;;15.87;45.50
63552;BME280;49698;48.072;7.800;2023-04-10T09:58:17;99770.09;;;16.14;45.12
63552;BME280;49698;48.072;7.800;2023-04-10T10:00:47;99764.34;;;16.38;44.41
63552;BME280;49698;48.072;7.800;2023-04-10T10:03:16;99760.88;;;16.46;43.81
63552;BME280;49698;48.072;7.800;2023-04-10T10:05:48;99758.91;;;16.38;43.95
63552;BME280;49698;48.072;7.800;2023-04-10T10:08:16;99746.25;;;16.33;43.82
63552;BME280;49698;48.072;7.800;2023-04-10T10:10:46;99749.84;;;16.43;44.08
63552;BME280;49698;48.072;7.800;2023-04-10T10:13:20;99740.94;;;16.59;43.91
63552;BME280;49698;48.072;7.800;2023-04-10T10:15:55;99742.94;;;16.76;43.64
63552;BME280;49698;48.072;7.800;2023-04-10T10:18:33;99735.63;;;16.85;43.43
63552;BME280;49698;48.072;7.800;2023-04-10T10:21:03;99731.34;;;16.93;43.73
63552;BME280;49698;48.072;7.800;2023-04-10T10:23:32;99733.25;;;17.10;43.86
63552;BME280;49698;48.072;7.800;2023-04-10T10:26:00;99734.72;;;17.16;44.37
63552;BME280;49698;48.072;7.800;2023-04-10T10:28:34;99739.34;;;17.24;44.12
63552;BME280;49698;48.072;7.800;2023-04-10T10:31:03;99731.84;;;17.21;44.30
63552;BME280;49698;48.072;7.800;2023-04-10T10:33:34;99727.19;;;17.22;44.56
63552;BME280;49698;48.072;7.800;2023-04-10T10:36:03;99730.41;;;17.32;44.38
63552;BME280;49698;48.072;7.800;2023-04-10T10:38:31;99724.16;;;17.41;43.67
63552;BME280;49698;48.072;7.800;2023-04-10T10:41:04;99721.28;;;17.46;44.53
63552;BME280;49698;48.072;7.800;2023-04-10T10:43:47;99723.69;;;17.56;44.17
63552;BME280;49698;48.072;7.800;2023-04-10T10:46:19;99721.59;;;17.70;43.70
63552;BME280;49698;48.072;7.800;2023-04-10T10:48:57;99719.84;;;17.83;43.55
63552;BME280;49698;48.072;7.800;2023-04-10T10:51:44;99713.59;;;17.82;43.47
63552;BME280;49698;48.072;7.800;2023-04-10T10:54:33;99708.16;;;17.82;42.78
63552;BME280;49698;48.072;7.800;2023-04-10T10:57:02;99705.91;;;17.84;42.75
63552;BME280;49698;48.072;7.800;2023-04-10T10:59:54;99703.50;;;17.92;42.24
63552;BME280;49698;48.072;7.800;2023-04-10T11:02:24;99695.16;;;18.05;42.22
63552;BME280;49698;48.072;7.800;2023-04-10T11:04:53;99702.31;;;18.10;41.40
63552;BME280;49698;48.072;7.800;2023-04-10T11:10:58;99693.19;;;18.15;40.58
63552;BME280;49698;48.072;7.800;2023-04-10T11:13:26;99695.44;;;18.13;40.25
63552;BME280;49698;48.072;7.800;2023-04-10T11:15:58;99691.59;;;18.14;40.85
63552;BME280;49698;48.072;7.800;2023-04-10T11:19:00;99688.72;;;18.10;41.17
63552;BME280;49698;48.072;7.800;2023-04-10T11:21:59;99691.09;;;18.20;41.02
63552;BME280;49698;48.072;7.800;2023-04-10T11:24:28;99694.91;;;18.19;41.56
63552;BME280;49698;48.072;7.800;2023-04-10T11:26:56;99686.91;;;18.23;41.19
63552;BME280;49698;48.072;7.800;2023-04-10T11:29:33;99679.03;;;18.30;40.98
63552;BME280;49698;48.072;7.800;2023-04-10T11:32:03;99678.06;;;18.34;40.88
63552;BME280;49698;48.072;7.800;2023-04-10T11:34:31;99666.66;;;18.41;40.88
63552;BME280;49698;48.072;7.800;2023-04-10T11:37:00;99667.00;;;18.40;40.56
63552;BME280;49698;48.072;7.800;2023-04-10T11:39:29;99669.03;;;18.51;40.85
63552;BME280;49698;48.072;7.800;2023-04-10T11:41:57;99673.91;;;18.58;41.18
63552;BME280;49698;48.072;7.800;2023-04-10T11:44:29;99679.28;;;18.46;40.91
63552;BME280;49698;48.072;7.800;2023-04-10T11:46:58;99669.88;;;18.43;41.22
63552;BME280;49698;48.072;7.800;2023-04-10T11:49:29;99673.66;;;18.51;41.59
63552;BME280;49698;48.072;7.800;2023-04-10T11:51:57;99674.31;;;18.48;41.03
63552;BME280;49698;48.072;7.800;2023-04-10T11:54:26;99672.06;;;18.50;40.91
63552;BME280;49698;48.072;7.800;2023-04-10T11:56:57;99678.72;;;18.61;40.77
63552;BME280;49698;48.072;7.800;2023-04-10T11:59:27;99670.34;;;18.66;40.96
63552;BME280;49698;48.072;7.800;2023-04-10T12:02:04;99663.19;;;18.70;40.84
63552;BME280;49698;48.072;7.800;2023-04-10T12:04:34;99670.66;;;18.73;41.10
63552;BME280;49698;48.072;7.800;2023-04-10T12:07:03;99666.81;;;18.74;40.76
63552;BME280;49698;48.072;7.800;2023-04-10T12:09:31;99661.84;;;18.76;41.14
63552;BME280;49698;48.072;7.800;2023-04-10T12:12:00;99646.25;;;18.86;41.47
63552;BME280;49698;48.072;7.800;2023-04-10T12:14:31;99643.59;;;18.98;41.14
63552;BME280;49698;48.072;7.800;2023-04-10T12:16:59;99637.06;;;19.11;41.10
63552;BME280;49698;48.072;7.800;2023-04-10T12:19:28;99633.94;;;19.21;40.87
63552;BME280;49698;48.072;7.800;2023-04-10T12:21:58;99632.13;;;19.25;40.39
63552;BME280;49698;48.072;7.800;2023-04-10T12:24:40;99631.47;;;19.28;40.57
63552;BME280;49698;48.072;7.800;2023-04-10T12:27:15;99622.53;;;19.40;40.31
63552;BME280;49698;48.072;7.800;2023-04-10T12:29:44;99615.63;;;19.55;40.48
63552;BME280;49698;48.072;7.800;2023-04-10T12:32:13;99618.94;;;19.61;40.24
63552;BME280;49698;48.072;7.800;2023-04-10T12:34:49;99624.06;;;19.62;40.47
63552;BME280;49698;48.072;7.800;2023-04-10T12:37:19;99622.34;;;19.58;40.79
63552;BME280;49698;48.072;7.800;2023-04-10T12:39:48;99622.81;;;19.60;40.71
63552;BME280;49698;48.072;7.800;2023-04-10T12:42:18;99616.22;;;19.61;40.70
63552;BME280;49698;48.072;7.800;2023-04-10T12:44:52;99609.84;;;19.57;40.91
63552;BME280;49698;48.072;7.800;2023-04-10T12:47:21;99612.44;;;19.53;40.51
63552;BME280;49698;48.072;7.800;2023-04-10T12:50:06;99614.94;;;19.46;40.57
63552;BME280;49698;48.072;7.800;2023-04-10T12:52:37;99613.13;;;19.50;40.57
63552;BME280;49698;48.072;7.800;2023-04-10T12:55:13;99608.81;;;19.61;40.43
63552;BME280;49698;48.072;7.800;2023-04-10T12:57:42;99601.03;;;19.72;40.54
63552;BME280;49698;48.072;7.800;2023-04-10T13:00:13;99590.50;;;19.83;40.25
63552;BME280;49698;48.072;7.800;2023-04-10T13:02:41;99586.84;;;19.91;39.91
63552;BME280;49698;48.072;7.800;2023-04-10T13:05:09;99588.56;;;19.95;39.75
63552;BME280;49698;48.072;7.800;2023-04-10T13:07:39;99589.59;;;20.03;39.85
63552;BME280;49698;48.072;7.800;2023-04-10T13:10:08;99582.31;;;19.95;39.69
63552;BME280;49698;48.072;7.800;2023-04-10T13:12:36;99585.94;;;19.87;39.41
63552;BME280;49698;48.072;7.800;2023-04-10T13:15:06;99580.38;;;19.83;39.52
63552;BME280;49698;48.072;7.800;2023-04-10T13:17:34;99569.09;;;19.85;39.03
63552;BME280;49698;48.072;7.800;2023-04-10T13:20:03;99575.25;;;19.94;39.18
63552;BME280;49698;48.072;7.800;2023-04-10T13:22:31;99576.19;;;19.98;38.36
63552;BME280;49698;48.072;7.800;2023-04-10T13:25:00;99577.53;;;19.92;37.39
63552;BME280;49698;48.072;7.800;2023-04-10T13:27:29;99568.56;;;19.79;36.89
63552;BME280;49698;48.072;7.800;2023-04-10T13:29:57;99563.19;;;19.70;36.81
63552;BME280;49698;48.072;7.800;2023-04-10T13:32:25;99562.06;;;19.71;37.21
63552;BME280;49698;48.072;7.800;2023-04-10T13:34:53;99557.53;;;19.75;36.99
63552;BME280;49698;48.072;7.800;2023-04-10T13:37:22;99559.78;;;19.73;37.21
63552;BME280;49698;48.072;7.800;2023-04-10T13:39:52;99555.00;;;19.70;37.42
63552;BME280;49698;48.072;7.800;2023-04-10T13:42:21;99546.78;;;19.58;37.28